Chilik Southeast Airfield

Jump to: basic info | weather | comments

Related pages: nearby airports | nearby navaids

Basic information (top)

Location: lon 43.223598, lat 78.732399, elev 4,497 ft / 1,371 m msl
Status: small_airport

Weather (top)

Current conditions for Almaty Airport 74nm (138km) W (rec'd 2014/11/28 14:00Z):

UAAA 281400Z 01002MPS 9999 BKN038 OVC100 M09/M13 Q1035 R05L/91//50 R05R/91//60 NOSIG

Airport forecast for Almaty Airport 74nm (138km) W (rec'd 2014/11/28 12:18Z):

TAF TAF UAAA 281100Z 2812/2912 14004MPS 1500 BR FU BKN010 OVC100 TXM08/2908Z TNM17/2901Z 
      TEMPO 2812/2906 0200 FZFG VV001 
      BECMG 2906/2907 02005MPS 3000

Latest comments (top)

Spelling: OK oK its Kazakhstan♄, so you have a ... [read]

Airfield: I came across this airfield on Google, ... [read]

More... (top)

See also NOTAMs and nearby airports and navaids, or visit the Chilik Southeast Airfield page at the main OurAirports website..